Time;durP1;ratioP1;P1;durP2;ratioP2;P2;SDS_P1;SDS_P2;PMS_P1;PMS_P2;Temp;Humidity;BMP_temperature;BMP_pressure;BME280_temperature;BME280_humidity;BME280_pressure;Samples;Min_cycle;Max_cycle;Signal;HPM_P1;HPM_P2
2022/10/12 00:00:26;;;;;;;8.47;5.97;;;;;;;15.00;100.00;65767.22;5112085;28;20313;-61
2022/10/12 00:02:55;;;;;;;7.47;6.73;;;;;;;15.13;100.00;69393.56;5112156;28;20557;-60
2022/10/12 00:05:22;;;;;;;8.07;7.20;;;;;;;15.23;100.00;74009.88;5111785;28;20194;-60
2022/10/12 00:07:49;;;;;;;8.10;7.50;;;;;;;15.33;100.00;88866.75;5112123;28;20618;-60
2022/10/12 00:10:17;;;;;;;7.90;6.97;;;;;;;15.39;100.00;94170.56;5112136;28;20183;-60
2022/10/12 00:12:44;;;;;;;7.63;7.13;;;;;;;15.41;100.00;97817.31;5112186;28;20690;-60
2022/10/12 00:15:12;;;;;;;7.13;6.63;;;;;;;15.27;100.00;103764.44;5112098;28;20535;-60
2022/10/12 00:17:39;;;;;;;6.77;6.40;;;;;;;15.27;100.00;88858.44;5112109;28;20194;-60
2022/10/12 00:20:08;;;;;;;9.90;7.30;;;;;;;15.16;100.00;81907.69;5115752;28;20223;-60
2022/10/12 00:22:35;;;;;;;6.47;6.00;;;;;;;14.96;100.00;73319.06;5116084;28;20550;-61
2022/10/12 00:25:02;;;;;;;7.37;6.77;;;;;;;14.85;100.00;64437.50;5097588;28;20209;-60
2022/10/12 00:27:29;;;;;;;6.60;6.20;;;;;;;14.89;100.00;65098.00;5116200;28;20612;-60
2022/10/12 00:29:56;;;;;;;9.13;7.00;;;;;;;15.05;100.00;66757.69;5116123;28;20652;-60
2022/10/12 00:32:23;;;;;;;10.67;7.10;;;;;;;15.04;100.00;69712.63;5115990;28;20656;-61
2022/10/12 00:34:50;;;;;;;8.10;6.53;;;;;;;14.94;100.00;71015.09;5115922;28;20630;-60
2022/10/12 00:37:18;;;;;;;10.13;6.50;;;;;;;14.55;100.00;64733.16;5115847;28;20556;-60
2022/10/12 00:39:45;;;;;;;7.60;6.90;;;;;;;14.83;100.00;65091.28;5115512;28;20186;-60
2022/10/12 00:42:12;;;;;;;11.00;7.53;;;;;;;14.75;100.00;66722.69;5115430;28;20188;-60
2022/10/12 00:44:42;;;;;;;8.73;6.97;;;;;;;14.87;100.00;65424.41;5115552;28;20227;-61
2022/10/12 00:47:26;;;;;;;8.17;7.20;;;;;;;14.88;100.00;67065.84;5115557;28;20191;-60
2022/10/12 00:49:58;;;;;;;8.57;7.30;;;;;;;15.00;100.00;65439.03;5115328;28;20190;-61
2022/10/12 00:52:36;;;;;;;7.70;7.20;;;;;;;14.93;100.00;71999.41;5115307;28;20188;-62
2022/10/12 00:55:05;;;;;;;7.80;7.00;;;;;;;14.96;100.00;75293.03;5115251;28;20186;-61
2022/10/12 00:57:32;;;;;;;7.77;7.07;;;;;;;14.94;100.00;74632.34;5115704;28;20535;-62
2022/10/12 01:00:02;;;;;;;10.67;7.87;;;;;;;15.04;100.00;72342.41;5115035;28;20187;-60
2022/10/12 01:02:32;;;;;;;8.70;7.10;;;;;;;14.97;100.00;71018.75;5115619;28;20295;-61
2022/10/12 01:05:00;;;;;;;9.63;6.90;;;;;;;15.13;100.00;68408.47;5115164;28;20207;-61
2022/10/12 01:07:28;;;;;;;8.20;7.30;;;;;;;15.10;100.00;76627.34;5115284;28;20187;-61
2022/10/12 01:09:55;;;;;;;8.07;7.30;;;;;;;15.08;100.00;77612.69;5114821;28;20187;-61
2022/10/12 01:12:23;;;;;;;6.20;5.77;;;;;;;15.19;100.00;74663.03;5114850;28;20278;-60
2022/10/12 01:14:50;;;;;;;6.77;6.37;;;;;;;15.21;100.00;81255.06;5115045;28;20546;-61
2022/10/12 01:17:33;;;;;;;7.60;6.97;;;;;;;15.21;100.00;83895.09;5114766;28;20187;-61
2022/10/12 01:20:34;;;;;;;8.67;6.53;;;;;;;15.26;100.00;89517.31;5114632;28;20229;-61
2022/10/12 01:23:35;;;;;;;7.17;6.27;;;;;;;15.34;100.00;88868.25;5114843;28;20192;-61
2022/10/12 01:26:37;;;;;;;7.23;6.73;;;;;;;15.36;100.00;89532.56;5081303;28;20570;-60
2022/10/12 01:29:22;;;;;;;7.37;6.57;;;;;;;15.05;100.00;74975.50;5069505;28;20237;-64
2022/10/12 01:31:57;;;;;;;6.60;5.83;;;;;;;14.90;100.00;69695.88;5114121;28;20187;-60
2022/10/12 01:34:29;;;;;;;7.23;6.07;;;;;;;14.93;100.00;61495.38;5114398;28;20185;-61
2022/10/12 01:37:05;;;;;;;8.00;5.90;;;;;;;14.94;100.00;61169.22;5114631;28;20187;-61
2022/10/12 01:39:38;;;;;;;7.10;3.80;;;;;;;15.07;100.00;60199.19;5114680;28;20183;-60
2022/10/12 01:42:10;;;;;;;5.27;4.13;;;;;;;15.12;100.00;65123.78;5114547;28;20187;-60
2022/10/12 01:44:37;;;;;;;3.47;3.10;;;;;;;15.22;100.00;77301.84;5114604;28;20273;-60
2022/10/12 01:47:06;;;;;;;3.03;2.83;;;;;;;15.39;100.00;86892.72;5114256;28;20183;-60
2022/10/12 01:49:35;;;;;;;2.77;2.67;;;;;;;15.55;100.00;104478.13;5114488;28;20187;-59
2022/10/12 01:52:12;;;;;;;3.57;2.60;;;;;;;15.70;100.00;116820.53;5114050;28;20226;-59
2022/10/12 01:54:53;;;;;;;3.43;2.23;;;;;;;15.75;100.00;138061.94;5114044;28;20199;-60
2022/10/12 01:57:28;;;;;;;2.67;2.37;;;;;;;15.83;100.00;148415.72;5114200;28;20184;-60
2022/10/12 02:00:03;;;;;;;2.27;2.17;;;;;;;15.93;100.00;150042.50;5114049;28;20179;-60
2022/10/12 02:02:39;;;;;;;12.93;7.57;;;;;;;15.94;100.00;150045.03;5113805;28;20221;-61
2022/10/12 02:05:14;;;;;;;7.03;6.23;;;;;;;15.89;100.00;150031.06;5113806;28;20297;-60
2022/10/12 02:07:48;;;;;;;12.87;7.73;;;;;;;15.78;100.00;150004.44;5114360;28;20565;-60
2022/10/12 02:10:21;;;;;;;13.40;6.63;;;;;;;15.67;100.00;149976.50;5114224;28;20627;-60
2022/10/12 02:12:51;;;;;;;7.67;6.93;;;;;;;15.58;100.00;141098.47;5113679;28;20190;-62
2022/10/12 02:15:20;;;;;;;6.53;6.03;;;;;;;15.58;100.00;128149.91;5113623;28;20182;-60
2022/10/12 02:17:51;;;;;;;9.53;7.07;;;;;;;15.50;100.00;120783.22;5113649;28;20187;-60
2022/10/12 02:20:20;;;;;;;12.33;7.07;;;;;;;15.49;100.00;116445.59;5105926;28;20236;-60
2022/10/12 02:22:50;;;;;;;11.07;7.17;;;;;;;15.51;100.00;121453.81;5093436;28;20635;-60
2022/10/12 02:25:20;;;;;;;9.27;7.43;;;;;;;15.61;100.00;118802.66;5092923;28;20200;-61
2022/10/12 02:27:52;;;;;;;13.37;7.23;;;;;;;15.64;100.00;122146.25;5093202;28;20276;-60
2022/10/12 02:30:19;;;;;;;21.17;7.93;;;;;;;15.70;100.00;122827.66;5093281;28;20199;-60
2022/10/12 02:32:54;;;;;;;13.10;6.53;;;;;;;15.55;100.00;128143.41;5092988;28;20187;-61
2022/10/12 02:35:27;;;;;;;14.60;7.30;;;;;;;15.66;100.00;127832.78;5093061;28;20274;-61
2022/10/12 02:37:56;;;;;;;12.23;6.70;;;;;;;15.71;100.00;123497.84;5093064;28;20189;-60
2022/10/12 02:40:35;;;;;;;9.20;7.47;;;;;;;15.70;100.00;139384.44;5093083;28;20180;-59
2022/10/12 02:43:08;;;;;;;13.17;6.87;;;;;;;15.73;100.00;141753.44;5092953;28;20183;-60
2022/10/12 02:45:38;;;;;;;12.70;7.77;;;;;;;15.80;100.00;141585.13;5092922;28;20220;-60
2022/10/12 02:48:09;;;;;;;5.63;4.40;;;;;;;15.80;100.00;147062.50;5092849;28;20616;-60
2022/10/12 02:50:37;;;;;;;4.90;3.43;;;;;;;15.71;100.00;149986.63;5092992;28;20192;-60
2022/10/12 02:53:05;;;;;;;5.27;4.77;;;;;;;15.81;100.00;150012.03;5092380;28;20242;-60
2022/10/12 02:55:32;;;;;;;12.27;4.67;;;;;;;15.88;100.00;150029.78;5092622;28;20180;-60
2022/10/12 02:57:59;;;;;;;5.80;2.67;;;;;;;15.87;100.00;150027.25;5092837;28;20188;-61
2022/10/12 03:00:26;;;;;;;3.73;3.43;;;;;;;15.92;100.00;150038.66;5092597;28;20184;-60
2022/10/12 03:02:53;;;;;;;29.50;10.13;;;;;;;15.93;100.00;150041.22;5092403;28;20180;-60
2022/10/12 03:05:21;;;;;;;30.50;9.17;;;;;;;15.86;100.00;148822.94;5092668;28;20749;-61
2022/10/12 03:07:48;;;;;;;24.50;9.03;;;;;;;15.79;100.00;148211.16;5092301;28;20184;-61
2022/10/12 03:10:15;;;;;;;6.87;6.17;;;;;;;15.70;100.00;146968.09;5092560;28;20661;-60
2022/10/12 03:12:44;;;;;;;20.77;7.63;;;;;;;15.68;100.00;138117.81;5092663;28;20195;-60
2022/10/12 03:15:11;;;;;;;14.67;7.67;;;;;;;15.59;100.00;121802.03;5092102;28;20180;-60
2022/10/12 03:17:38;;;;;;;5.57;3.53;;;;;;;15.33;100.00;144499.19;5092172;28;20188;-60
2022/10/12 03:20:06;;;;;;;3.03;2.73;;;;;;;15.42;100.00;149914.28;5098086;28;20242;-60
2022/10/12 03:22:34;;;;;;;2.37;2.20;;;;;;;15.52;100.00;149939.72;5112329;28;20187;-60
2022/10/12 03:25:01;;;;;;;2.23;2.03;;;;;;;15.59;100.00;149954.91;5112191;28;20290;-60
2022/10/12 03:27:28;;;;;;;1.57;1.43;;;;;;;15.62;100.00;149963.78;5112417;28;20183;-60
2022/10/12 03:29:55;;;;;;;1.73;1.47;;;;;;;15.79;100.00;150006.94;5112193;28;20183;-60
2022/10/12 03:32:22;;;;;;;1.40;1.40;;;;;;;15.90;100.00;150033.63;5112161;28;20183;-61
2022/10/12 03:34:49;;;;;;;4.57;1.60;;;;;;;16.00;100.00;150060.25;5112288;28;20184;-60
2022/10/12 03:37:16;;;;;;;3.37;1.93;;;;;;;15.94;100.00;150045.03;5112219;28;20194;-60
2022/10/12 03:39:45;;;;;;;2.30;2.10;;;;;;;15.94;100.00;150045.03;5112136;28;20191;-60
2022/10/12 03:42:12;;;;;;;2.03;1.93;;;;;;;15.86;100.00;150024.75;5112036;28;20198;-60
2022/10/12 03:44:39;;;;;;;2.50;1.90;;;;;;;15.77;100.00;150001.88;5112421;28;20226;-60
2022/10/12 03:47:07;;;;;;;2.13;1.70;;;;;;;15.71;100.00;149985.38;5112378;28;20575;-60
2022/10/12 03:49:34;;;;;;;4.57;1.93;;;;;;;15.92;100.00;150039.94;5112357;28;20624;-61
2022/10/12 03:52:01;;;;;;;10.77;5.00;;;;;;;16.00;100.00;150060.25;5112364;28;20574;-61
2022/10/12 03:54:27;;;;;;;8.23;5.93;;;;;;;15.89;100.00;150031.06;5112150;28;20187;-60
2022/10/12 03:56:56;;;;;;;6.37;5.80;;;;;;;15.67;100.00;149975.22;5111985;28;20184;-61
2022/10/12 03:59:23;;;;;;;9.23;6.00;;;;;;;15.48;100.00;149456.41;5112022;28;20218;-60
2022/10/12 04:01:50;;;;;;;4.37;3.47;;;;;;;15.44;100.00;149919.38;5112343;28;20274;-60
2022/10/12 04:04:16;;;;;;;4.93;4.10;;;;;;;15.52;100.00;149938.44;5111779;28;20198;-60
2022/10/12 04:06:43;;;;;;;17.80;5.90;;;;;;;15.61;100.00;149960.00;5112056;28;20207;-60
2022/10/12 04:09:10;;;;;;;17.33;7.30;;;;;;;15.56;100.00;149948.59;5112136;28;20560;-60
2022/10/12 04:11:37;;;;;;;6.37;5.30;;;;;;;15.43;100.00;145690.31;5111811;28;20184;-60
2022/10/12 04:14:05;;;;;;;6.40;5.73;;;;;;;15.36;100.00;136153.50;5112059;28;20260;-60
2022/10/12 04:16:32;;;;;;;7.00;6.30;;;;;;;15.18;100.00;119717.22;5112066;28;20549;-61
2022/10/12 04:18:59;;;;;;;6.13;5.50;;;;;;;15.18;100.00;109064.28;5111913;28;20570;-61
2022/10/12 04:21:28;;;;;;;10.47;6.07;;;;;;;15.02;100.00;107042.06;5111665;28;20237;-60
2022/10/12 04:23:55;;;;;;;12.30;5.40;;;;;;;15.18;100.00;106072.78;5111971;28;20183;-61
2022/10/12 04:26:22;;;;;;;5.80;4.33;;;;;;;15.26;100.00;109744.13;5111946;28;20577;-61
2022/10/12 04:28:49;;;;;;;6.67;3.70;;;;;;;15.32;100.00;125420.03;5112140;28;20187;-61
2022/10/12 04:31:17;;;;;;;9.50;5.20;;;;;;;15.40;100.00;147588.00;5112017;28;20205;-60
2022/10/12 04:33:44;;;;;;;8.97;5.30;;;;;;;15.41;100.00;127779.72;5111967;28;20184;-61
2022/10/12 04:36:11;;;;;;;8.37;4.80;;;;;;;15.45;100.00;137470.53;5111936;28;20188;-60
2022/10/12 04:38:38;;;;;;;13.70;5.33;;;;;;;15.36;100.00;149897.78;5111913;28;20206;-60
2022/10/12 04:41:05;;;;;;;8.30;4.30;;;;;;;15.25;100.00;149869.84;5111561;28;20188;-60
2022/10/12 04:43:32;;;;;;;5.50;3.10;;;;;;;15.34;100.00;149892.69;5111838;28;20187;-60
2022/10/12 04:46:00;;;;;;;8.20;2.30;;;;;;;15.34;100.00;149892.69;5111414;28;20210;-60
2022/10/12 04:48:28;;;;;;;8.53;2.67;;;;;;;15.18;100.00;149852.13;5111763;28;20602;-61
2022/10/12 04:50:55;;;;;;;9.27;2.70;;;;;;;15.51;100.00;149937.16;5093394;28;20271;-62
2022/10/12 04:53:22;;;;;;;3.03;1.73;;;;;;;15.55;100.00;149946.03;5111566;28;20618;-61
2022/10/12 04:55:49;;;;;;;4.87;1.60;;;;;;;15.78;100.00;150004.44;5111469;28;20184;-61
2022/10/12 04:58:16;;;;;;;2.00;1.90;;;;;;;15.83;100.00;150017.09;5111436;28;20188;-60
2022/10/12 05:00:43;;;;;;;4.53;1.47;;;;;;;15.88;100.00;150028.50;5111549;28;20176;-61
2022/10/12 05:03:10;;;;;;;10.53;2.03;;;;;;;15.99;100.00;150056.47;5111491;28;20278;-61
2022/10/12 05:05:38;;;;;;;3.10;1.97;;;;;;;16.00;100.00;150060.25;5096204;28;20219;-60
2022/10/12 05:08:06;;;;;;;6.40;1.97;;;;;;;16.05;100.00;150071.69;5096926;28;20190;-61
2022/10/12 05:10:33;;;;;;;1.90;1.80;;;;;;;16.18;100.00;150103.41;5115021;28;20184;-60
2022/10/12 05:13:00;;;;;;;6.47;1.67;;;;;;;16.17;100.00;150102.13;5127379;27;20217;-56
2022/10/12 05:15:27;;;;;;;2.17;1.60;;;;;;;16.26;100.00;150123.72;5135563;27;20175;-56
2022/10/12 05:17:54;;;;;;;5.10;1.53;;;;;;;16.26;100.00;150123.72;5135672;27;20669;-54
2022/10/12 05:20:21;;;;;;;3.53;1.27;;;;;;;16.30;100.00;150133.88;5135450;27;20269;-55
2022/10/12 05:22:49;;;;;;;3.27;1.50;;;;;;;16.32;100.00;150140.25;5135631;27;20205;-60
2022/10/12 05:25:18;;;;;;;5.80;1.60;;;;;;;16.45;100.00;150173.28;5135399;27;20206;-60
2022/10/12 05:27:45;;;;;;;3.33;1.50;;;;;;;16.59;100.00;150207.56;5117358;27;20209;-61
2022/10/12 05:30:12;;;;;;;15.33;4.50;;;;;;;16.68;100.00;150230.44;5135350;27;20194;-60
2022/10/12 05:32:39;;;;;;;13.60;4.60;;;;;;;16.60;100.00;150208.84;5135498;27;20262;-60
2022/10/12 05:35:07;;;;;;;9.30;4.23;;;;;;;16.37;100.00;150152.97;5134867;27;20183;-61
2022/10/12 05:37:34;;;;;;;9.23;5.27;;;;;;;16.49;100.00;150182.16;5134960;27;20642;-61
2022/10/12 05:40:03;;;;;;;12.53;5.17;;;;;;;16.52;100.00;150188.47;5135276;27;20258;-60
2022/10/12 05:42:29;;;;;;;17.73;4.67;;;;;;;16.50;100.00;150184.72;5134817;27;20190;-61
2022/10/12 05:44:56;;;;;;;7.97;4.10;;;;;;;16.57;100.00;150202.50;5116507;27;20212;-61
2022/10/12 05:47:23;;;;;;;11.80;5.27;;;;;;;16.59;100.00;150207.56;5135376;27;20694;-60
2022/10/12 05:49:50;;;;;;;8.13;4.83;;;;;;;16.61;100.00;150212.66;5134737;27;20187;-60
2022/10/12 05:52:17;;;;;;;7.20;4.40;;;;;;;16.55;100.00;150197.38;5134729;27;20185;-60
2022/10/12 05:54:44;;;;;;;7.10;4.70;;;;;;;16.62;100.00;150213.94;5134945;27;20552;-60
2022/10/12 05:57:14;;;;;;;12.33;3.63;;;;;;;16.73;100.00;150243.16;5134510;27;20187;-60
2022/10/12 05:59:41;;;;;;;12.63;4.50;;;;;;;16.84;100.00;150271.13;5116406;27;20222;-60
2022/10/12 06:02:10;;;;;;;19.13;4.77;;;;;;;16.94;100.00;150293.94;5134849;27;20213;-61
2022/10/12 06:04:37;;;;;;;10.37;4.50;;;;;;;17.14;100.00;150344.78;5134447;27;20194;-60
2022/10/12 06:07:04;;;;;;;17.57;5.13;;;;;;;17.29;100.00;150382.88;5134883;27;20199;-61
2022/10/12 06:09:31;;;;;;;16.47;5.53;;;;;;;17.40;100.00;150410.81;5134267;27;20225;-61
2022/10/12 06:11:57;;;;;;;23.87;6.00;;;;;;;17.46;100.00;150424.81;5134331;27;20213;-61
2022/10/12 06:14:26;;;;;;;16.50;5.53;;;;;;;17.57;100.00;150452.75;5134419;27;20190;-60
2022/10/12 06:16:53;;;;;;;18.60;5.07;;;;;;;17.67;100.00;150478.25;5133696;27;20202;-60
2022/10/12 06:19:20;;;;;;;10.30;4.20;;;;;;;17.76;100.00;150501.13;5116138;27;20198;-60
2022/10/12 06:21:46;;;;;;;18.87;4.63;;;;;;;17.95;100.00;150548.16;5133767;27;20257;-60
2022/10/12 06:24:13;;;;;;;13.37;4.53;;;;;;;18.02;100.00;150565.97;5133882;27;20186;-61
2022/10/12 06:26:40;;;;;;;18.00;5.53;;;;;;;18.11;100.00;150588.84;5134008;27;20214;-61
2022/10/12 06:29:07;;;;;;;14.20;5.43;;;;;;;18.05;100.00;150574.84;5133743;27;20198;-60
2022/10/12 06:31:38;;;;;;;26.67;5.80;;;;;;;18.21;100.00;150614.25;5133817;27;20269;-61
2022/10/12 06:34:06;;;;;;;19.63;6.27;;;;;;;18.46;100.00;150677.81;5133769;27;20187;-61
2022/10/12 06:36:33;;;;;;;24.73;6.37;;;;;;;18.61;100.00;150716.06;5133863;27;20183;-61
2022/10/12 06:39:00;;;;;;;30.30;4.97;;;;;;;18.83;100.00;150770.75;5133907;27;20299;-61
2022/10/12 06:41:26;;;;;;;24.20;5.80;;;;;;;18.99;100.00;150810.16;5133822;27;20210;-61
2022/10/12 06:43:53;;;;;;;11.37;3.73;;;;;;;19.38;100.00;150908.16;5133890;27;20632;-61
2022/10/12 06:46:21;;;;;;;15.47;4.60;;;;;;;19.53;100.00;150947.63;5133702;27;20703;-61
2022/10/12 06:48:50;;;;;;;14.63;4.27;;;;;;;19.76;100.00;151003.66;5133603;27;20178;-61
2022/10/12 06:51:17;;;;;;;5.57;2.40;;;;;;;19.74;100.00;150998.53;5133411;27;20214;-61
2022/10/12 06:53:44;;;;;;;1.23;1.20;;;;;;;19.56;100.00;150955.25;5133686;27;20182;-60
2022/10/12 06:56:11;;;;;;;2.17;1.80;;;;;;;19.44;100.00;150923.44;5133880;27;20183;-61
2022/10/12 06:58:38;;;;;;;2.00;1.83;;;;;;;19.18;100.00;150858.50;5133449;27;20182;-60
2022/10/12 07:01:09;;;;;;;3.47;1.40;;;;;;;19.28;100.00;150883.97;5133282;27;20182;-61
2022/10/12 07:04:04;;;;;;;2.00;1.83;;;;;;;19.31;100.00;150891.56;5131059;27;20271;-60
2022/10/12 07:06:33;;;;;;;1.40;1.33;;;;;;;19.28;100.00;150882.69;5113145;27;20225;-60
2022/10/12 07:09:00;;;;;;;2.13;1.30;;;;;;;19.09;100.00;150836.91;5114783;27;20283;-62
2022/10/12 07:11:27;;;;;;;1.23;1.13;;;;;;;19.09;100.00;150835.63;5133370;27;20538;-62
2022/10/12 07:13:54;;;;;;;1.73;1.60;;;;;;;19.13;100.00;150845.81;5133407;27;20224;-62
2022/10/12 07:16:21;;;;;;;1.90;1.43;;;;;;;19.29;100.00;150885.22;5133742;27;20217;-61
2022/10/12 07:18:48;;;;;;;6.73;2.00;;;;;;;19.61;100.00;150968.00;5133825;27;20191;-62
2022/10/12 07:21:15;;;;;;;3.90;2.57;;;;;;;19.63;100.00;150970.53;5133056;27;20226;-62
2022/10/12 07:23:44;;;;;;;8.03;3.10;;;;;;;19.89;100.00;151036.75;5133762;27;20643;-61
2022/10/12 07:26:11;;;;;;;6.80;1.63;;;;;;;19.88;100.00;151034.19;5133567;27;20668;-62
2022/10/12 07:28:38;;;;;;;2.73;2.40;;;;;;;20.06;100.00;151080.03;5132100;27;20183;-61
2022/10/12 07:31:08;;;;;;;1.23;1.23;;;;;;;19.54;99.23;150948.91;5133261;27;20187;-62
2022/10/12 07:33:37;;;;;;;3.43;1.50;;;;;;;19.44;99.13;150924.72;5133209;27;20633;-61
2022/10/12 07:36:05;;;;;;;2.83;1.80;;;;;;;19.53;100.00;150946.34;5132940;27;20186;-61
2022/10/12 07:38:32;;;;;;;1.40;1.30;;;;;;;19.74;96.66;150998.53;5115077;27;20212;-61
2022/10/12 07:41:01;;;;;;;1.87;1.70;;;;;;;19.80;96.77;151013.81;5132734;27;20193;-61
2022/10/12 07:43:29;;;;;;;2.70;1.60;;;;;;;19.71;97.50;150990.91;5132879;27;20190;-61
2022/10/12 07:45:56;;;;;;;1.97;1.50;;;;;;;19.61;100.00;150968.00;5132858;27;20692;-60
2022/10/12 07:48:23;;;;;;;2.70;1.20;;;;;;;19.39;100.00;150910.72;5132767;27;20182;-60
2022/10/12 07:50:53;;;;;;;1.97;1.30;;;;;;;19.40;100.00;150914.50;5132517;28;20190;-60
2022/10/12 07:53:20;;;;;;;3.27;1.27;;;;;;;19.40;100.00;150913.22;5129327;28;20198;-59
2022/10/12 07:55:47;;;;;;;5.50;1.33;;;;;;;19.44;100.00;150923.44;5113741;28;20191;-62
2022/10/12 07:58:16;;;;;;;1.37;1.27;;;;;;;19.19;100.00;150861.03;5114810;28;20194;-60
2022/10/12 08:00:42;;;;;;;3.40;1.80;;;;;;;19.14;100.00;150849.59;5133206;28;20186;-62
2022/10/12 08:03:15;;;;;;;2.53;1.33;;;;;;;19.19;100.00;150861.03;5133447;28;20197;-63
2022/10/12 08:05:42;;;;;;;1.33;0.90;;;;;;;18.80;100.00;150761.84;5134357;28;20665;-62
2022/10/12 08:08:09;;;;;;;3.37;1.30;;;;;;;19.22;100.00;150867.44;5098739;28;20183;-63
2022/10/12 08:10:36;;;;;;;1.20;1.03;;;;;;;19.04;100.00;150822.91;5132601;28;20186;-63
2022/10/12 08:13:03;;;;;;;1.37;1.27;;;;;;;19.04;100.00;150822.91;5132906;28;20197;-63
2022/10/12 08:15:32;;;;;;;1.87;1.10;;;;;;;19.24;100.00;150873.78;5114480;28;20182;-62
2022/10/12 08:17:59;;;;;;;0.87;0.87;;;;;;;19.14;100.00;150849.59;5133226;28;20522;-61
2022/10/12 08:20:26;;;;;;;2.33;0.83;;;;;;;19.25;100.00;150875.06;5131813;28;20305;-61
2022/10/12 08:22:54;;;;;;;1.07;1.07;;;;;;;19.11;100.00;150840.69;5131785;28;20191;-62
2022/10/12 08:25:21;;;;;;;1.07;1.00;;;;;;;18.96;100.00;150802.56;5131903;28;20186;-62
2022/10/12 08:27:48;;;;;;;3.97;1.30;;;;;;;19.10;100.00;150839.41;5132192;28;20206;-63
2022/10/12 08:30:15;;;;;;;1.43;1.20;;;;;;;19.09;100.00;150835.63;5131955;28;20191;-62
2022/10/12 08:32:43;;;;;;;1.87;1.00;;;;;;;19.33;100.00;150896.69;5131988;28;20208;-62
2022/10/12 08:35:11;;;;;;;14.53;2.27;;;;;;;19.53;98.14;150946.34;5131723;28;20592;-62
2022/10/12 08:37:39;;;;;;;3.13;1.43;;;;;;;20.07;96.05;151082.59;5131520;28;20211;-62
2022/10/12 08:40:07;;;;;;;4.63;1.30;;;;;;;19.99;95.31;151062.19;5133662;27;20190;-62
2022/10/12 08:42:48;;;;;;;2.70;1.17;;;;;;;19.96;93.64;151054.56;5135522;27;20198;-63
2022/10/12 08:45:35;;;;;;;0.70;0.70;;;;;;;19.91;95.59;151041.81;5134441;27;20193;-62
2022/10/12 08:48:09;;;;;;;7.45;2.20;;;;;;;19.98;95.35;151060.94;5136174;27;20530;-62
2022/10/12 08:50:40;;;;;;;5.10;1.10;;;;;;;19.81;94.27;151017.66;5136579;27;20564;-62
2022/10/12 08:53:16;;;;;;;2.97;0.90;;;;;;;20.16;95.38;151104.19;5135491;27;20187;-62
2022/10/12 08:55:45;;;;;;;1.52;0.98;;;;;;;20.45;93.96;151179.38;5133462;27;20189;-62
2022/10/12 08:58:16;;;;;;;4.37;1.10;;;;;;;20.46;91.55;151181.91;5135740;27;20564;-63
2022/10/12 09:00:47;;;;;;;2.20;1.13;;;;;;;20.65;90.55;151227.78;5135201;27;20190;-62
2022/10/12 09:03:26;;;;;;;2.30;1.20;;;;;;;21.87;86.86;151536.19;5135566;27;20221;-61
2022/10/12 09:06:06;;;;;;;2.22;0.90;;;;;;;22.51;78.03;151696.88;5135066;27;20251;-62
2022/10/12 09:08:49;;;;;;;3.67;1.05;;;;;;;23.06;73.34;151835.97;5135477;27;20182;-62
2022/10/12 09:11:30;;;;;;;0.70;0.60;;;;;;;23.27;71.12;151889.56;5133422;27;20187;-62
2022/10/12 09:14:05;;;;;;;0.93;0.90;;;;;;;24.08;68.75;152093.81;5135843;27;20193;-62
2022/10/12 09:16:36;;;;;;;1.17;1.10;;;;;;;25.55;63.54;152464.34;5135607;27;20203;-63
2022/10/12 09:19:10;;;;;;;2.53;0.93;;;;;;;25.81;59.04;152530.81;5135767;27;20221;-61
2022/10/12 09:21:39;;;;;;;1.13;0.88;;;;;;;26.21;56.90;152633.16;5135592;27;20645;-62
2022/10/12 09:24:16;;;;;;;1.75;0.75;;;;;;;25.44;57.93;152437.50;5136237;27;20183;-61
2022/10/12 09:26:46;;;;;;;2.20;0.80;;;;;;;26.86;55.36;152795.59;5135343;27;20227;-62
2022/10/12 09:29:25;;;;;;;3.40;0.82;;;;;;;26.85;54.04;152793.03;5116770;27;20221;-62
2022/10/12 09:32:22;;;;;;;2.35;0.85;;;;;;;26.92;53.63;152812.19;5135671;27;20182;-62
2022/10/12 09:34:50;;;;;;;0.90;0.80;;;;;;;26.70;52.91;152757.16;5134308;27;20190;-62
2022/10/12 09:37:21;;;;;;;1.45;0.88;;;;;;;27.31;51.63;152910.69;5134801;27;20218;-63
2022/10/12 09:39:49;;;;;;;3.80;1.10;;;;;;;25.77;54.95;152520.59;5133725;27;20561;-62
2022/10/12 09:42:16;;;;;;;1.23;0.80;;;;;;;25.45;56.39;152440.06;5135037;27;20200;-62
2022/10/12 09:44:48;;;;;;;0.75;0.75;;;;;;;24.38;57.42;152169.19;5135311;27;20283;-63
2022/10/12 09:47:28;;;;;;;1.55;0.88;;;;;;;23.66;55.50;151987.88;5135480;27;20198;-62
2022/10/12 09:49:58;;;;;;;3.92;1.25;;;;;;;24.10;56.13;152098.94;5135488;27;20636;-59
2022/10/12 09:52:29;;;;;;;2.92;1.40;;;;;;;24.36;57.69;152164.06;5134352;27;20190;-62
2022/10/12 09:55:00;;;;;;;1.20;1.20;;;;;;;25.25;58.01;152388.97;5134978;27;20193;-61
2022/10/12 09:57:30;;;;;;;3.83;1.05;;;;;;;26.41;54.15;152683.00;5134791;27;20617;-63
2022/10/12 09:59:57;;;;;;;1.42;1.02;;;;;;;25.20;55.41;152376.16;5135436;27;20183;-62
2022/10/12 10:02:26;;;;;;;0.95;0.93;;;;;;;25.69;54.38;152500.16;5134772;27;20581;-63
2022/10/12 10:04:54;;;;;;;4.80;1.17;;;;;;;25.31;53.65;152404.25;5134655;27;20558;-63
2022/10/12 10:07:29;;;;;;;1.73;1.00;;;;;;;23.87;60.11;152041.47;5134441;27;20596;-62
2022/10/12 10:10:20;;;;;;;1.17;1.08;;;;;;;23.10;64.61;151846.16;5134410;27;20219;-63
2022/10/12 10:12:52;;;;;;;2.05;1.25;;;;;;;23.19;64.73;151870.41;5115612;27;20251;-63
2022/10/12 10:15:26;;;;;;;1.95;1.00;;;;;;;23.68;63.33;151992.94;5134517;27;20262;-63
2022/10/12 10:17:56;;;;;;;4.90;1.10;;;;;;;23.40;65.64;151922.72;5134235;27;20175;-63
2022/10/12 10:20:28;;;;;;;1.90;1.05;;;;;;;24.08;63.70;152095.09;5134131;27;20236;-62
2022/10/12 10:23:00;;;;;;;2.45;1.52;;;;;;;23.15;67.76;151858.94;5133894;27;20195;-63
2022/10/12 10:25:27;;;;;;;3.83;1.20;;;;;;;23.47;66.81;151940.63;5134110;27;20190;-62
2022/10/12 10:28:10;;;;;;;1.13;1.02;;;;;;;23.76;65.33;152013.41;5134051;27;20214;-62
2022/10/12 10:30:37;;;;;;;1.83;1.10;;;;;;;23.58;65.21;151968.75;5131306;27;20289;-62
2022/10/12 10:33:14;;;;;;;0.98;0.90;;;;;;;22.82;70.00;151774.75;5133924;27;20187;-62
2022/10/12 10:35:58;;;;;;;1.25;1.00;;;;;;;23.47;67.91;151939.34;5133807;27;20190;-62
2022/10/12 10:38:27;;;;;;;2.15;0.90;;;;;;;23.87;66.30;152040.19;5133606;27;20187;-62
2022/10/12 10:40:57;;;;;;;2.10;1.55;;;;;;;23.67;67.63;151990.44;5133651;27;20183;-62
2022/10/12 10:43:27;;;;;;;1.80;1.27;;;;;;;23.01;69.96;151824.47;5133648;27;20285;-62
2022/10/12 10:45:58;;;;;;;1.48;1.15;;;;;;;22.64;75.14;151731.34;5133498;27;20183;-62
2022/10/12 10:48:28;;;;;;;4.28;1.42;;;;;;;22.03;80.87;151577.00;5133600;27;20592;-63
2022/10/12 10:50:59;;;;;;;5.40;1.52;;;;;;;22.42;77.14;151675.19;5133421;27;20186;-62
2022/10/12 10:53:30;;;;;;;1.95;0.70;;;;;;;21.69;82.07;151490.28;5133542;27;20187;-62
2022/10/12 10:56:03;;;;;;;1.40;1.30;;;;;;;21.77;81.74;151510.66;5133379;27;20183;-62
2022/10/12 10:58:36;;;;;;;2.25;1.13;;;;;;;21.79;81.95;151517.06;5133198;27;20187;-62
2022/10/12 11:01:14;;;;;;;2.70;0.98;;;;;;;21.72;81.12;151499.25;5133244;27;20274;-63
2022/10/12 11:03:51;;;;;;;2.72;1.10;;;;;;;21.88;79.43;151538.75;5132967;27;20189;-62
2022/10/12 11:06:30;;;;;;;2.20;0.95;;;;;;;21.31;83.15;151394.69;5133017;27;20235;-62
2022/10/12 11:09:04;;;;;;;2.92;1.35;;;;;;;20.79;86.37;151264.69;5133481;27;20618;-62
2022/10/12 11:11:34;;;;;;;1.70;1.08;;;;;;;21.06;88.06;151332.22;5133397;27;20525;-62
2022/10/12 11:14:12;;;;;;;1.10;1.00;;;;;;;21.27;85.72;151385.78;5133479;27;20602;-62
2022/10/12 11:16:44;;;;;;;3.17;1.20;;;;;;;21.31;85.30;151395.97;5110711;27;20621;-63
2022/10/12 11:19:24;;;;;;;1.30;1.20;;;;;;;21.23;89.91;151375.59;5092144;28;20199;-62
2022/10/12 11:21:54;;;;;;;1.00;0.90;;;;;;;21.24;89.40;151378.16;5113308;28;20576;-62
2022/10/12 11:24:28;;;;;;;1.77;0.90;;;;;;;21.00;92.19;151316.97;5113035;28;20187;-62
2022/10/12 11:27:04;;;;;;;3.17;0.93;;;;;;;20.94;94.75;151301.66;5112789;28;20611;-63
2022/10/12 11:29:36;;;;;;;1.00;1.00;;;;;;;20.77;96.24;151259.63;5112178;28;20561;-62
2022/10/12 11:32:07;;;;;;;2.80;1.20;;;;;;;20.77;99.43;151259.63;5112665;28;20271;-63